sensor_id;sensor_type;location;lat;lon;timestamp;P1;durP1;ratioP1;P2;durP2;ratioP2
6979;SDS011;3530;52.832;10.680;2023-08-30T00:00:40;2.63;;;2.53;;
6979;SDS011;3530;52.832;10.680;2023-08-30T00:03:25;2.40;;;2.30;;
6979;SDS011;3530;52.832;10.680;2023-08-30T00:06:11;2.80;;;2.60;;
6979;SDS011;3530;52.832;10.680;2023-08-30T00:08:57;4.93;;;2.50;;
6979;SDS011;3530;52.832;10.680;2023-08-30T00:11:43;2.28;;;2.17;;
6979;SDS011;3530;52.832;10.680;2023-08-30T00:14:29;2.75;;;2.65;;
6979;SDS011;3530;52.832;10.680;2023-08-30T00:17:15;2.60;;;2.45;;
6979;SDS011;3530;52.832;10.680;2023-08-30T00:20:00;2.30;;;2.20;;
6979;SDS011;3530;52.832;10.680;2023-08-30T00:22:47;2.40;;;2.30;;
6979;SDS011;3530;52.832;10.680;2023-08-30T00:25:33;2.58;;;2.47;;
6979;SDS011;3530;52.832;10.680;2023-08-30T00:28:19;3.08;;;2.85;;
6979;SDS011;3530;52.832;10.680;2023-08-30T00:31:05;2.70;;;2.47;;
6979;SDS011;3530;52.832;10.680;2023-08-30T00:33:51;2.72;;;2.53;;
6979;SDS011;3530;52.832;10.680;2023-08-30T00:36:36;2.60;;;2.50;;
6979;SDS011;3530;52.832;10.680;2023-08-30T00:39:22;2.80;;;2.70;;
6979;SDS011;3530;52.832;10.680;2023-08-30T00:42:07;2.70;;;2.25;;
6979;SDS011;3530;52.832;10.680;2023-08-30T00:44:54;2.60;;;2.28;;
6979;SDS011;3530;52.832;10.680;2023-08-30T00:47:40;2.80;;;2.70;;
6979;SDS011;3530;52.832;10.680;2023-08-30T00:50:25;2.85;;;2.70;;
6979;SDS011;3530;52.832;10.680;2023-08-30T00:53:11;2.70;;;2.50;;
6979;SDS011;3530;52.832;10.680;2023-08-30T00:55:57;2.70;;;2.53;;
6979;SDS011;3530;52.832;10.680;2023-08-30T00:58:43;2.45;;;2.35;;
6979;SDS011;3530;52.832;10.680;2023-08-30T01:01:29;2.60;;;2.50;;
6979;SDS011;3530;52.832;10.680;2023-08-30T01:04:14;3.05;;;2.75;;
6979;SDS011;3530;52.832;10.680;2023-08-30T01:07:00;2.40;;;2.30;;
6979;SDS011;3530;52.832;10.680;2023-08-30T01:09:46;2.70;;;2.60;;
6979;SDS011;3530;52.832;10.680;2023-08-30T01:12:42;2.70;;;2.50;;
6979;SDS011;3530;52.832;10.680;2023-08-30T01:15:31;2.80;;;2.60;;
6979;SDS011;3530;52.832;10.680;2023-08-30T01:18:18;3.10;;;2.40;;
6979;SDS011;3530;52.832;10.680;2023-08-30T01:21:04;2.70;;;2.50;;
6979;SDS011;3530;52.832;10.680;2023-08-30T01:23:57;2.45;;;2.28;;
6979;SDS011;3530;52.832;10.680;2023-08-30T01:29:55;2.72;;;2.63;;
6979;SDS011;3530;52.832;10.680;2023-08-30T01:32:42;2.72;;;2.63;;
6979;SDS011;3530;52.832;10.680;2023-08-30T01:35:28;2.65;;;2.53;;
6979;SDS011;3530;52.832;10.680;2023-08-30T01:38:18;2.80;;;2.60;;
6979;SDS011;3530;52.832;10.680;2023-08-30T01:41:03;2.70;;;2.60;;
6979;SDS011;3530;52.832;10.680;2023-08-30T01:43:49;3.10;;;2.47;;
6979;SDS011;3530;52.832;10.680;2023-08-30T01:46:38;2.72;;;2.53;;
6979;SDS011;3530;52.832;10.680;2023-08-30T01:49:24;2.58;;;2.47;;
6979;SDS011;3530;52.832;10.680;2023-08-30T01:52:10;2.33;;;2.22;;
6979;SDS011;3530;52.832;10.680;2023-08-30T01:54:56;2.80;;;2.60;;
6979;SDS011;3530;52.832;10.680;2023-08-30T01:57:42;2.47;;;2.35;;
6979;SDS011;3530;52.832;10.680;2023-08-30T02:00:28;2.90;;;2.53;;
6979;SDS011;3530;52.832;10.680;2023-08-30T02:03:14;2.92;;;2.72;;
6979;SDS011;3530;52.832;10.680;2023-08-30T02:06:02;2.42;;;2.33;;
6979;SDS011;3530;52.832;10.680;2023-08-30T02:09:23;3.00;;;2.72;;
6979;SDS011;3530;52.832;10.680;2023-08-30T02:12:04;2.75;;;2.55;;
6979;SDS011;3530;52.832;10.680;2023-08-30T02:14:53;2.70;;;2.60;;
6979;SDS011;3530;52.832;10.680;2023-08-30T02:17:40;3.05;;;2.85;;
6979;SDS011;3530;52.832;10.680;2023-08-30T02:20:26;2.40;;;2.30;;
6979;SDS011;3530;52.832;10.680;2023-08-30T02:23:11;2.47;;;2.28;;
6979;SDS011;3530;52.832;10.680;2023-08-30T02:25:57;3.45;;;2.38;;
6979;SDS011;3530;52.832;10.680;2023-08-30T02:28:42;2.55;;;2.35;;
6979;SDS011;3530;52.832;10.680;2023-08-30T02:31:28;2.75;;;2.65;;
6979;SDS011;3530;52.832;10.680;2023-08-30T02:34:14;4.82;;;2.60;;
6979;SDS011;3530;52.832;10.680;2023-08-30T02:37:00;2.65;;;2.53;;
6979;SDS011;3530;52.832;10.680;2023-08-30T02:39:45;3.05;;;2.63;;
6979;SDS011;3530;52.832;10.680;2023-08-30T02:42:31;4.43;;;2.58;;
6979;SDS011;3530;52.832;10.680;2023-08-30T02:45:17;2.47;;;2.38;;
6979;SDS011;3530;52.832;10.680;2023-08-30T02:48:02;2.63;;;2.28;;
6979;SDS011;3530;52.832;10.680;2023-08-30T02:50:48;3.10;;;2.38;;
6979;SDS011;3530;52.832;10.680;2023-08-30T02:53:34;2.70;;;2.50;;
6979;SDS011;3530;52.832;10.680;2023-08-30T02:56:20;2.30;;;2.20;;
6979;SDS011;3530;52.832;10.680;2023-08-30T02:59:05;3.88;;;2.47;;
6979;SDS011;3530;52.832;10.680;2023-08-30T03:01:51;2.90;;;2.67;;
6979;SDS011;3530;52.832;10.680;2023-08-30T03:04:37;3.25;;;2.35;;
6979;SDS011;3530;52.832;10.680;2023-08-30T03:07:24;2.47;;;2.30;;
6979;SDS011;3530;52.832;10.680;2023-08-30T03:10:09;2.15;;;2.05;;
6979;SDS011;3530;52.832;10.680;2023-08-30T03:12:55;2.58;;;2.38;;
6979;SDS011;3530;52.832;10.680;2023-08-30T03:15:40;2.05;;;1.83;;
6979;SDS011;3530;52.832;10.680;2023-08-30T03:18:26;4.03;;;2.10;;
6979;SDS011;3530;52.832;10.680;2023-08-30T03:21:12;2.40;;;2.30;;
6979;SDS011;3530;52.832;10.680;2023-08-30T03:23:58;3.38;;;2.88;;
6979;SDS011;3530;52.832;10.680;2023-08-30T03:26:44;2.30;;;2.20;;
6979;SDS011;3530;52.832;10.680;2023-08-30T03:29:29;2.58;;;2.47;;
6979;SDS011;3530;52.832;10.680;2023-08-30T03:32:16;4.97;;;2.70;;
6979;SDS011;3530;52.832;10.680;2023-08-30T03:35:03;2.58;;;2.47;;
6979;SDS011;3530;52.832;10.680;2023-08-30T03:37:48;2.50;;;2.20;;
6979;SDS011;3530;52.832;10.680;2023-08-30T03:40:34;2.70;;;2.60;;
6979;SDS011;3530;52.832;10.680;2023-08-30T03:43:20;2.33;;;2.22;;
6979;SDS011;3530;52.832;10.680;2023-08-30T03:46:06;2.30;;;2.20;;
6979;SDS011;3530;52.832;10.680;2023-08-30T03:48:52;2.63;;;2.42;;
6979;SDS011;3530;52.832;10.680;2023-08-30T03:51:37;2.50;;;2.40;;
6979;SDS011;3530;52.832;10.680;2023-08-30T03:54:23;2.40;;;2.30;;
6979;SDS011;3530;52.832;10.680;2023-08-30T03:57:08;3.05;;;2.85;;
6979;SDS011;3530;52.832;10.680;2023-08-30T03:59:54;2.80;;;2.70;;
6979;SDS011;3530;52.832;10.680;2023-08-30T04:02:40;2.65;;;2.45;;
6979;SDS011;3530;52.832;10.680;2023-08-30T04:05:25;2.30;;;2.20;;
6979;SDS011;3530;52.832;10.680;2023-08-30T04:08:11;2.33;;;2.20;;
6979;SDS011;3530;52.832;10.680;2023-08-30T04:10:57;2.38;;;2.28;;
6979;SDS011;3530;52.832;10.680;2023-08-30T04:13:42;2.67;;;2.58;;
6979;SDS011;3530;52.832;10.680;2023-08-30T04:16:28;4.47;;;3.25;;
6979;SDS011;3530;52.832;10.680;2023-08-30T04:19:14;3.47;;;2.30;;
6979;SDS011;3530;52.832;10.680;2023-08-30T04:21:59;2.75;;;2.53;;
6979;SDS011;3530;52.832;10.680;2023-08-30T04:24:45;2.70;;;2.50;;
6979;SDS011;3530;52.832;10.680;2023-08-30T04:27:31;4.53;;;2.38;;
6979;SDS011;3530;52.832;10.680;2023-08-30T04:30:17;2.28;;;2.17;;
6979;SDS011;3530;52.832;10.680;2023-08-30T04:33:03;3.17;;;2.95;;
6979;SDS011;3530;52.832;10.680;2023-08-30T04:35:53;2.90;;;2.70;;
6979;SDS011;3530;52.832;10.680;2023-08-30T04:38:39;3.17;;;2.97;;
6979;SDS011;3530;52.832;10.680;2023-08-30T04:41:25;2.92;;;2.72;;
6979;SDS011;3530;52.832;10.680;2023-08-30T04:44:10;2.83;;;2.65;;
6979;SDS011;3530;52.832;10.680;2023-08-30T04:46:56;3.35;;;3.08;;
6979;SDS011;3530;52.832;10.680;2023-08-30T04:49:42;3.17;;;2.97;;
6979;SDS011;3530;52.832;10.680;2023-08-30T04:52:27;3.97;;;3.03;;
6979;SDS011;3530;52.832;10.680;2023-08-30T04:55:13;3.35;;;3.13;;
6979;SDS011;3530;52.832;10.680;2023-08-30T04:57:59;2.60;;;2.50;;
6979;SDS011;3530;52.832;10.680;2023-08-30T05:00:44;2.10;;;2.00;;
6979;SDS011;3530;52.832;10.680;2023-08-30T05:03:30;2.35;;;2.20;;
6979;SDS011;3530;52.832;10.680;2023-08-30T05:06:15;2.20;;;2.10;;
6979;SDS011;3530;52.832;10.680;2023-08-30T05:09:01;2.63;;;2.47;;
6979;SDS011;3530;52.832;10.680;2023-08-30T05:11:47;2.28;;;2.17;;
6979;SDS011;3530;52.832;10.680;2023-08-30T05:14:33;2.80;;;2.60;;
6979;SDS011;3530;52.832;10.680;2023-08-30T05:17:19;3.38;;;3.08;;
6979;SDS011;3530;52.832;10.680;2023-08-30T05:20:04;2.88;;;2.72;;
6979;SDS011;3530;52.832;10.680;2023-08-30T05:22:51;2.90;;;2.70;;
6979;SDS011;3530;52.832;10.680;2023-08-30T05:25:36;2.88;;;2.78;;
6979;SDS011;3530;52.832;10.680;2023-08-30T05:28:22;2.67;;;2.58;;
6979;SDS011;3530;52.832;10.680;2023-08-30T05:31:07;3.53;;;2.75;;
6979;SDS011;3530;52.832;10.680;2023-08-30T05:33:53;2.65;;;2.55;;
6979;SDS011;3530;52.832;10.680;2023-08-30T05:36:39;3.05;;;2.85;;
6979;SDS011;3530;52.832;10.680;2023-08-30T05:39:25;2.70;;;2.53;;
6979;SDS011;3530;52.832;10.680;2023-08-30T05:42:11;2.58;;;2.47;;
6979;SDS011;3530;52.832;10.680;2023-08-30T05:44:56;2.45;;;2.35;;
6979;SDS011;3530;52.832;10.680;2023-08-30T05:47:42;3.20;;;3.00;;
6979;SDS011;3530;52.832;10.680;2023-08-30T05:50:28;2.75;;;2.63;;
6979;SDS011;3530;52.832;10.680;2023-08-30T05:53:13;4.10;;;2.90;;
6979;SDS011;3530;52.832;10.680;2023-08-30T05:55:59;2.95;;;2.83;;
6979;SDS011;3530;52.832;10.680;2023-08-30T05:58:45;3.42;;;3.17;;
6979;SDS011;3530;52.832;10.680;2023-08-30T06:01:30;3.85;;;3.40;;
6979;SDS011;3530;52.832;10.680;2023-08-30T06:04:16;3.17;;;2.97;;
6979;SDS011;3530;52.832;10.680;2023-08-30T06:07:02;3.17;;;3.03;;
6979;SDS011;3530;52.832;10.680;2023-08-30T06:09:48;3.67;;;3.47;;
6979;SDS011;3530;52.832;10.680;2023-08-30T06:12:34;3.22;;;3.03;;
6979;SDS011;3530;52.832;10.680;2023-08-30T06:15:20;3.67;;;3.47;;
6979;SDS011;3530;52.832;10.680;2023-08-30T06:18:06;3.33;;;3.13;;
6979;SDS011;3530;52.832;10.680;2023-08-30T06:20:52;3.45;;;3.22;;
6979;SDS011;3530;52.832;10.680;2023-08-30T06:23:37;3.35;;;3.15;;
6979;SDS011;3530;52.832;10.680;2023-08-30T06:26:23;3.75;;;3.10;;
6979;SDS011;3530;52.832;10.680;2023-08-30T06:29:09;3.70;;;3.42;;
6979;SDS011;3530;52.832;10.680;2023-08-30T06:31:55;4.18;;;3.88;;
6979;SDS011;3530;52.832;10.680;2023-08-30T06:34:40;4.32;;;4.03;;
6979;SDS011;3530;52.832;10.680;2023-08-30T06:37:26;4.05;;;3.75;;
6979;SDS011;3530;52.832;10.680;2023-08-30T06:40:12;5.07;;;4.68;;
6979;SDS011;3530;52.832;10.680;2023-08-30T06:42:57;5.05;;;4.55;;
6979;SDS011;3530;52.832;10.680;2023-08-30T06:45:44;5.25;;;4.80;;
6979;SDS011;3530;52.832;10.680;2023-08-30T06:48:30;3.80;;;3.53;;
6979;SDS011;3530;52.832;10.680;2023-08-30T06:51:15;5.38;;;4.88;;
6979;SDS011;3530;52.832;10.680;2023-08-30T06:54:01;4.65;;;4.35;;
6979;SDS011;3530;52.832;10.680;2023-08-30T06:56:57;5.55;;;5.10;;
6979;SDS011;3530;52.832;10.680;2023-08-30T06:59:43;5.05;;;4.57;;
6979;SDS011;3530;52.832;10.680;2023-08-30T07:02:29;6.47;;;5.10;;
6979;SDS011;3530;52.832;10.680;2023-08-30T07:05:15;4.28;;;3.97;;
6979;SDS011;3530;52.832;10.680;2023-08-30T07:08:01;5.88;;;5.28;;
6979;SDS011;3530;52.832;10.680;2023-08-30T07:10:48;4.55;;;4.15;;
6979;SDS011;3530;52.832;10.680;2023-08-30T07:13:33;4.68;;;4.28;;
6979;SDS011;3530;52.832;10.680;2023-08-30T07:16:19;4.22;;;3.83;;
6979;SDS011;3530;52.832;10.680;2023-08-30T07:19:05;3.78;;;3.47;;
6979;SDS011;3530;52.832;10.680;2023-08-30T07:21:51;4.13;;;3.83;;
6979;SDS011;3530;52.832;10.680;2023-08-30T07:24:36;7.32;;;6.32;;
6979;SDS011;3530;52.832;10.680;2023-08-30T07:27:22;7.80;;;6.85;;
6979;SDS011;3530;52.832;10.680;2023-08-30T07:30:08;8.93;;;6.53;;
6979;SDS011;3530;52.832;10.680;2023-08-30T07:32:54;6.68;;;6.07;;
6979;SDS011;3530;52.832;10.680;2023-08-30T07:35:39;6.78;;;6.10;;
6979;SDS011;3530;52.832;10.680;2023-08-30T07:38:26;6.72;;;5.50;;
6979;SDS011;3530;52.832;10.680;2023-08-30T07:41:12;8.40;;;6.43;;
6979;SDS011;3530;52.832;10.680;2023-08-30T07:43:58;9.02;;;6.53;;
6979;SDS011;3530;52.832;10.680;2023-08-30T07:46:43;6.85;;;6.22;;
6979;SDS011;3530;52.832;10.680;2023-08-30T07:49:29;8.35;;;6.65;;
6979;SDS011;3530;52.832;10.680;2023-08-30T07:52:15;6.75;;;6.07;;
6979;SDS011;3530;52.832;10.680;2023-08-30T07:55:00;7.45;;;6.70;;
6979;SDS011;3530;52.832;10.680;2023-08-30T07:57:46;5.82;;;5.32;;
6979;SDS011;3530;52.832;10.680;2023-08-30T08:00:32;5.53;;;5.07;;
6979;SDS011;3530;52.832;10.680;2023-08-30T08:03:18;8.57;;;6.30;;
6979;SDS011;3530;52.832;10.680;2023-08-30T08:06:05;3.75;;;3.38;;
6979;SDS011;3530;52.832;10.680;2023-08-30T08:08:50;6.18;;;5.60;;
6979;SDS011;3530;52.832;10.680;2023-08-30T08:11:36;6.35;;;5.40;;
6979;SDS011;3530;52.832;10.680;2023-08-30T08:14:24;6.25;;;5.38;;
6979;SDS011;3530;52.832;10.680;2023-08-30T08:17:10;6.03;;;5.50;;
6979;SDS011;3530;52.832;10.680;2023-08-30T08:19:56;4.95;;;4.55;;
6979;SDS011;3530;52.832;10.680;2023-08-30T08:22:41;4.95;;;4.43;;
6979;SDS011;3530;52.832;10.680;2023-08-30T08:25:27;5.47;;;4.97;;
6979;SDS011;3530;52.832;10.680;2023-08-30T08:28:13;4.55;;;4.15;;
6979;SDS011;3530;52.832;10.680;2023-08-30T08:30:58;5.13;;;4.28;;
6979;SDS011;3530;52.832;10.680;2023-08-30T08:33:44;6.53;;;5.80;;
6979;SDS011;3530;52.832;10.680;2023-08-30T08:36:30;4.47;;;3.88;;
6979;SDS011;3530;52.832;10.680;2023-08-30T08:39:15;6.03;;;5.55;;
6979;SDS011;3530;52.832;10.680;2023-08-30T08:42:02;3.60;;;3.28;;
6979;SDS011;3530;52.832;10.680;2023-08-30T08:44:53;4.63;;;4.32;;
6979;SDS011;3530;52.832;10.680;2023-08-30T08:47:39;3.70;;;3.50;;
6979;SDS011;3530;52.832;10.680;2023-08-30T08:50:25;5.13;;;3.55;;
6979;SDS011;3530;52.832;10.680;2023-08-30T08:53:11;4.72;;;4.32;;
6979;SDS011;3530;52.832;10.680;2023-08-30T08:55:58;4.25;;;3.92;;
6979;SDS011;3530;52.832;10.680;2023-08-30T08:58:43;3.38;;;3.08;;
6979;SDS011;3530;52.832;10.680;2023-08-30T09:01:29;3.08;;;2.88;;
6979;SDS011;3530;52.832;10.680;2023-08-30T09:04:18;3.90;;;3.38;;
6979;SDS011;3530;52.832;10.680;2023-08-30T09:07:05;2.85;;;2.70;;
6979;SDS011;3530;52.832;10.680;2023-08-30T09:09:51;3.55;;;3.25;;
6979;SDS011;3530;52.832;10.680;2023-08-30T09:12:38;2.72;;;2.60;;
6979;SDS011;3530;52.832;10.680;2023-08-30T09:15:30;3.10;;;2.90;;
6979;SDS011;3530;52.832;10.680;2023-08-30T09:18:17;4.03;;;1.95;;
6979;SDS011;3530;52.832;10.680;2023-08-30T09:21:06;2.92;;;2.72;;
6979;SDS011;3530;52.832;10.680;2023-08-30T09:23:58;4.80;;;2.80;;
6979;SDS011;3530;52.832;10.680;2023-08-30T09:26:51;3.08;;;2.67;;
6979;SDS011;3530;52.832;10.680;2023-08-30T09:29:38;3.03;;;2.42;;
6979;SDS011;3530;52.832;10.680;2023-08-30T09:32:24;3.33;;;2.33;;
6979;SDS011;3530;52.832;10.680;2023-08-30T09:35:09;2.35;;;2.08;;
6979;SDS011;3530;52.832;10.680;2023-08-30T09:37:55;2.40;;;2.20;;
6979;SDS011;3530;52.832;10.680;2023-08-30T09:40:41;2.33;;;2.20;;
6979;SDS011;3530;52.832;10.680;2023-08-30T09:43:26;3.65;;;2.53;;
6979;SDS011;3530;52.832;10.680;2023-08-30T09:46:12;2.15;;;1.80;;
6979;SDS011;3530;52.832;10.680;2023-08-30T09:48:58;1.98;;;1.88;;
6979;SDS011;3530;52.832;10.680;2023-08-30T09:51:44;1.73;;;1.63;;
6979;SDS011;3530;52.832;10.680;2023-08-30T09:54:31;2.22;;;2.03;;
6979;SDS011;3530;52.832;10.680;2023-08-30T09:57:18;1.63;;;1.63;;
6979;SDS011;3530;52.832;10.680;2023-08-30T10:00:04;2.00;;;1.90;;
6979;SDS011;3530;52.832;10.680;2023-08-30T10:02:50;2.33;;;2.22;;
6979;SDS011;3530;52.832;10.680;2023-08-30T10:05:36;2.17;;;2.00;;
6979;SDS011;3530;52.832;10.680;2023-08-30T10:08:22;2.58;;;2.00;;
6979;SDS011;3530;52.832;10.680;2023-08-30T10:11:08;1.90;;;1.80;;
6979;SDS011;3530;52.832;10.680;2023-08-30T10:13:55;2.42;;;2.30;;
6979;SDS011;3530;52.832;10.680;2023-08-30T10:16:42;3.28;;;2.20;;
6979;SDS011;3530;52.832;10.680;2023-08-30T10:19:32;2.13;;;2.03;;
6979;SDS011;3530;52.832;10.680;2023-08-30T10:22:18;2.25;;;2.05;;
6979;SDS011;3530;52.832;10.680;2023-08-30T10:25:10;2.55;;;1.85;;
6979;SDS011;3530;52.832;10.680;2023-08-30T10:27:58;2.55;;;2.45;;
6979;SDS011;3530;52.832;10.680;2023-08-30T10:30:44;2.75;;;2.20;;
6979;SDS011;3530;52.832;10.680;2023-08-30T10:33:30;4.40;;;2.45;;
6979;SDS011;3530;52.832;10.680;2023-08-30T10:36:22;2.83;;;2.33;;
6979;SDS011;3530;52.832;10.680;2023-08-30T10:39:12;3.25;;;2.50;;
6979;SDS011;3530;52.832;10.680;2023-08-30T10:41:58;2.10;;;1.90;;
6979;SDS011;3530;52.832;10.680;2023-08-30T10:47:46;2.60;;;2.40;;
6979;SDS011;3530;52.832;10.680;2023-08-30T10:50:33;5.30;;;4.80;;
6979;SDS011;3530;52.832;10.680;2023-08-30T10:53:19;3.20;;;2.90;;
6979;SDS011;3530;52.832;10.680;2023-08-30T10:56:14;5.07;;;4.57;;
6979;SDS011;3530;52.832;10.680;2023-08-30T10:59:02;5.90;;;4.00;;
6979;SDS011;3530;52.832;10.680;2023-08-30T11:01:48;4.55;;;3.95;;
6979;SDS011;3530;52.832;10.680;2023-08-30T11:04:38;6.38;;;3.88;;
6979;SDS011;3530;52.832;10.680;2023-08-30T11:07:25;4.28;;;3.88;;
6979;SDS011;3530;52.832;10.680;2023-08-30T11:10:11;5.72;;;3.38;;
6979;SDS011;3530;52.832;10.680;2023-08-30T11:12:57;5.40;;;4.75;;
6979;SDS011;3530;52.832;10.680;2023-08-30T11:15:42;4.57;;;3.78;;
6979;SDS011;3530;52.832;10.680;2023-08-30T11:18:28;3.67;;;3.10;;
6979;SDS011;3530;52.832;10.680;2023-08-30T11:21:14;3.10;;;2.90;;
6979;SDS011;3530;52.832;10.680;2023-08-30T11:23:59;2.97;;;2.63;;
6979;SDS011;3530;52.832;10.680;2023-08-30T11:26:45;4.78;;;3.50;;
6979;SDS011;3530;52.832;10.680;2023-08-30T11:29:31;4.15;;;3.67;;
6979;SDS011;3530;52.832;10.680;2023-08-30T11:32:17;5.22;;;3.22;;
6979;SDS011;3530;52.832;10.680;2023-08-30T11:35:02;4.65;;;4.05;;
6979;SDS011;3530;52.832;10.680;2023-08-30T11:37:49;3.78;;;3.33;;
6979;SDS011;3530;52.832;10.680;2023-08-30T11:40:35;5.85;;;5.35;;
6979;SDS011;3530;52.832;10.680;2023-08-30T11:43:20;6.07;;;4.63;;
6979;SDS011;3530;52.832;10.680;2023-08-30T11:46:07;5.60;;;5.10;;
6979;SDS011;3530;52.832;10.680;2023-08-30T11:48:53;6.85;;;4.78;;
6979;SDS011;3530;52.832;10.680;2023-08-30T11:51:39;5.65;;;5.00;;
6979;SDS011;3530;52.832;10.680;2023-08-30T11:54:25;6.53;;;5.85;;
6979;SDS011;3530;52.832;10.680;2023-08-30T11:57:11;5.75;;;4.97;;
6979;SDS011;3530;52.832;10.680;2023-08-30T12:00:06;7.03;;;5.70;;
6979;SDS011;3530;52.832;10.680;2023-08-30T12:02:52;5.35;;;4.60;;
6979;SDS011;3530;52.832;10.680;2023-08-30T12:05:43;4.90;;;4.50;;
6979;SDS011;3530;52.832;10.680;2023-08-30T12:08:32;5.00;;;4.60;;
6979;SDS011;3530;52.832;10.680;2023-08-30T12:11:18;4.45;;;4.13;;
6979;SDS011;3530;52.832;10.680;2023-08-30T12:14:04;5.30;;;4.55;;
6979;SDS011;3530;52.832;10.680;2023-08-30T12:16:50;4.68;;;4.28;;
6979;SDS011;3530;52.832;10.680;2023-08-30T12:19:36;4.20;;;3.47;;
6979;SDS011;3530;52.832;10.680;2023-08-30T12:22:21;3.22;;;3.00;;
6979;SDS011;3530;52.832;10.680;2023-08-30T12:25:17;4.18;;;3.88;;
6979;SDS011;3530;52.832;10.680;2023-08-30T12:28:03;3.83;;;3.40;;
6979;SDS011;3530;52.832;10.680;2023-08-30T12:30:49;5.07;;;4.57;;
6979;SDS011;3530;52.832;10.680;2023-08-30T12:33:35;7.60;;;4.32;;
6979;SDS011;3530;52.832;10.680;2023-08-30T12:36:21;3.47;;;3.22;;
6979;SDS011;3530;52.832;10.680;2023-08-30T12:39:07;4.18;;;3.78;;
6979;SDS011;3530;52.832;10.680;2023-08-30T12:41:53;3.60;;;3.30;;
6979;SDS011;3530;52.832;10.680;2023-08-30T12:44:39;4.13;;;3.83;;
6979;SDS011;3530;52.832;10.680;2023-08-30T12:47:25;3.80;;;3.50;;
6979;SDS011;3530;52.832;10.680;2023-08-30T12:50:10;5.30;;;4.50;;
6979;SDS011;3530;52.832;10.680;2023-08-30T12:52:56;7.28;;;4.57;;
6979;SDS011;3530;52.832;10.680;2023-08-30T12:55:42;4.18;;;3.78;;
6979;SDS011;3530;52.832;10.680;2023-08-30T12:58:28;4.72;;;4.32;;
6979;SDS011;3530;52.832;10.680;2023-08-30T13:01:13;3.58;;;3.28;;
6979;SDS011;3530;52.832;10.680;2023-08-30T13:03:59;5.25;;;3.90;;
6979;SDS011;3530;52.832;10.680;2023-08-30T13:06:44;4.10;;;3.70;;
6979;SDS011;3530;52.832;10.680;2023-08-30T13:09:30;4.50;;;4.13;;
6979;SDS011;3530;52.832;10.680;2023-08-30T13:12:16;4.40;;;4.00;;
6979;SDS011;3530;52.832;10.680;2023-08-30T13:15:02;4.22;;;3.40;;
6979;SDS011;3530;52.832;10.680;2023-08-30T13:17:48;3.80;;;3.50;;
6979;SDS011;3530;52.832;10.680;2023-08-30T13:20:37;3.97;;;3.67;;
6979;SDS011;3530;52.832;10.680;2023-08-30T13:23:23;4.22;;;3.42;;
6979;SDS011;3530;52.832;10.680;2023-08-30T13:26:09;3.85;;;2.63;;
6979;SDS011;3530;52.832;10.680;2023-08-30T13:28:55;2.92;;;2.72;;
6979;SDS011;3530;52.832;10.680;2023-08-30T13:31:42;3.40;;;3.08;;
6979;SDS011;3530;52.832;10.680;2023-08-30T13:34:28;4.07;;;3.28;;
6979;SDS011;3530;52.832;10.680;2023-08-30T13:37:13;3.72;;;3.25;;
6979;SDS011;3530;52.832;10.680;2023-08-30T13:39:59;4.53;;;2.65;;
6979;SDS011;3530;52.832;10.680;2023-08-30T13:42:45;3.33;;;2.80;;
6979;SDS011;3530;52.832;10.680;2023-08-30T13:45:30;4.22;;;2.67;;
6979;SDS011;3530;52.832;10.680;2023-08-30T13:48:16;3.05;;;2.80;;
6979;SDS011;3530;52.832;10.680;2023-08-30T13:51:02;3.08;;;2.78;;
6979;SDS011;3530;52.832;10.680;2023-08-30T13:53:47;3.70;;;3.13;;
6979;SDS011;3530;52.832;10.680;2023-08-30T13:56:33;4.72;;;2.95;;
6979;SDS011;3530;52.832;10.680;2023-08-30T13:59:19;3.20;;;2.90;;
6979;SDS011;3530;52.832;10.680;2023-08-30T14:02:05;3.58;;;3.20;;
6979;SDS011;3530;52.832;10.680;2023-08-30T14:04:51;3.05;;;2.80;;
6979;SDS011;3530;52.832;10.680;2023-08-30T14:07:37;3.00;;;2.75;;
6979;SDS011;3530;52.832;10.680;2023-08-30T14:10:23;3.90;;;3.70;;
6979;SDS011;3530;52.832;10.680;2023-08-30T14:13:08;2.78;;;2.67;;
6979;SDS011;3530;52.832;10.680;2023-08-30T14:15:54;5.35;;;3.45;;
6979;SDS011;3530;52.832;10.680;2023-08-30T14:18:40;5.32;;;2.95;;
6979;SDS011;3530;52.832;10.680;2023-08-30T14:21:26;2.67;;;2.50;;
6979;SDS011;3530;52.832;10.680;2023-08-30T14:24:12;3.22;;;2.75;;
6979;SDS011;3530;52.832;10.680;2023-08-30T14:27:00;2.80;;;2.60;;
6979;SDS011;3530;52.832;10.680;2023-08-30T14:29:45;3.38;;;2.80;;
6979;SDS011;3530;52.832;10.680;2023-08-30T14:32:31;2.95;;;2.65;;
6979;SDS011;3530;52.832;10.680;2023-08-30T14:35:17;2.70;;;2.60;;
6979;SDS011;3530;52.832;10.680;2023-08-30T14:38:05;2.80;;;2.63;;
6979;SDS011;3530;52.832;10.680;2023-08-30T14:40:58;3.08;;;2.28;;
6979;SDS011;3530;52.832;10.680;2023-08-30T14:43:44;3.33;;;2.78;;
6979;SDS011;3530;52.832;10.680;2023-08-30T14:46:30;3.38;;;2.80;;
6979;SDS011;3530;52.832;10.680;2023-08-30T14:49:15;2.30;;;2.08;;
6979;SDS011;3530;52.832;10.680;2023-08-30T14:52:01;3.03;;;2.83;;
6979;SDS011;3530;52.832;10.680;2023-08-30T14:54:47;2.40;;;2.30;;
6979;SDS011;3530;52.832;10.680;2023-08-30T14:57:32;3.25;;;2.95;;
6979;SDS011;3530;52.832;10.680;2023-08-30T15:00:18;2.55;;;2.45;;
6979;SDS011;3530;52.832;10.680;2023-08-30T15:03:03;2.35;;;2.25;;
6979;SDS011;3530;52.832;10.680;2023-08-30T15:05:52;2.42;;;2.33;;
6979;SDS011;3530;52.832;10.680;2023-08-30T15:08:41;2.90;;;2.70;;
6979;SDS011;3530;52.832;10.680;2023-08-30T15:11:28;2.50;;;2.30;;
6979;SDS011;3530;52.832;10.680;2023-08-30T15:14:13;2.50;;;2.40;;
6979;SDS011;3530;52.832;10.680;2023-08-30T15:16:59;2.58;;;2.17;;
6979;SDS011;3530;52.832;10.680;2023-08-30T15:19:45;3.70;;;3.10;;
6979;SDS011;3530;52.832;10.680;2023-08-30T15:22:30;2.67;;;2.47;;
6979;SDS011;3530;52.832;10.680;2023-08-30T15:25:17;2.95;;;2.80;;
6979;SDS011;3530;52.832;10.680;2023-08-30T15:28:03;3.03;;;2.83;;
6979;SDS011;3530;52.832;10.680;2023-08-30T15:30:49;3.25;;;3.05;;
6979;SDS011;3530;52.832;10.680;2023-08-30T15:33:36;3.30;;;2.90;;
6979;SDS011;3530;52.832;10.680;2023-08-30T15:36:21;4.38;;;3.10;;
6979;SDS011;3530;52.832;10.680;2023-08-30T15:39:07;3.13;;;2.78;;
6979;SDS011;3530;52.832;10.680;2023-08-30T15:41:54;2.80;;;2.67;;
6979;SDS011;3530;52.832;10.680;2023-08-30T15:44:39;2.65;;;2.50;;
6979;SDS011;3530;52.832;10.680;2023-08-30T15:47:25;4.10;;;3.78;;
6979;SDS011;3530;52.832;10.680;2023-08-30T15:50:11;3.40;;;3.10;;
6979;SDS011;3530;52.832;10.680;2023-08-30T15:52:57;3.20;;;3.00;;
6979;SDS011;3530;52.832;10.680;2023-08-30T15:55:43;3.10;;;2.90;;
6979;SDS011;3530;52.832;10.680;2023-08-30T15:58:28;3.88;;;3.50;;
6979;SDS011;3530;52.832;10.680;2023-08-30T16:01:14;2.95;;;2.72;;
6979;SDS011;3530;52.832;10.680;2023-08-30T16:04:00;3.00;;;2.80;;
6979;SDS011;3530;52.832;10.680;2023-08-30T16:06:46;3.13;;;2.92;;
6979;SDS011;3530;52.832;10.680;2023-08-30T16:09:31;3.05;;;2.85;;
6979;SDS011;3530;52.832;10.680;2023-08-30T16:12:17;3.22;;;2.80;;
6979;SDS011;3530;52.832;10.680;2023-08-30T16:15:03;5.95;;;2.75;;
6979;SDS011;3530;52.832;10.680;2023-08-30T16:17:49;3.10;;;2.90;;
6979;SDS011;3530;52.832;10.680;2023-08-30T16:20:35;3.20;;;3.00;;
6979;SDS011;3530;52.832;10.680;2023-08-30T16:23:21;3.13;;;2.83;;
6979;SDS011;3530;52.832;10.680;2023-08-30T16:26:06;3.85;;;3.33;;
6979;SDS011;3530;52.832;10.680;2023-08-30T16:28:52;3.65;;;3.35;;
6979;SDS011;3530;52.832;10.680;2023-08-30T16:31:38;3.13;;;2.92;;
6979;SDS011;3530;52.832;10.680;2023-08-30T16:34:23;3.10;;;2.90;;
6979;SDS011;3530;52.832;10.680;2023-08-30T16:37:09;3.20;;;2.92;;
6979;SDS011;3530;52.832;10.680;2023-08-30T16:39:55;3.55;;;2.78;;
6979;SDS011;3530;52.832;10.680;2023-08-30T16:42:40;3.20;;;3.00;;
6979;SDS011;3530;52.832;10.680;2023-08-30T16:45:26;3.28;;;3.00;;
6979;SDS011;3530;52.832;10.680;2023-08-30T16:48:12;2.65;;;2.55;;
6979;SDS011;3530;52.832;10.680;2023-08-30T16:50:58;3.50;;;3.05;;
6979;SDS011;3530;52.832;10.680;2023-08-30T16:53:44;4.65;;;2.83;;
6979;SDS011;3530;52.832;10.680;2023-08-30T16:56:29;3.28;;;3.08;;
6979;SDS011;3530;52.832;10.680;2023-08-30T16:59:15;3.10;;;2.90;;
6979;SDS011;3530;52.832;10.680;2023-08-30T17:02:00;3.17;;;2.97;;